Ann Elise — WDG5175 — position and weather

sailwx.info

Track history (hours):
 
Tides and Currents Weather Stations Pressure Air Temp Water Temp Dewpoint Dewpoint Depression Visibility Wind Speed Wind Dir Waves Ship Positions

Ann Elise

Owner: Magnolia Marine Transport Company, Vicksburg, MS. More information available from US FCC via Universal Licensing System and Coast Guard Vessel Documentation Center.

Last reported at 2018-Jan-23 01:08 UTC. Time now 2018-Jan-24 09:28 UTC.
Position N 32°06' W 091°06'.

Length 32 m; draft 3.1 m.

Type: Towing. MMSI: 367544060.

Date/timePositionNaut miles runAvg speedWind from/ knotsBaromVisibWave heightAir tempDewpointWater temp
2018-Jan-23 01:08N 32°06' W 091°06'1 8.2
2018-Jan-23 01:00N 32°07' W 091°07'4 7.4
2018-Jan-23 00:24N 32°07' W 091°01'4 9.1
2018-Jan-23 00:00N 32°11' W 090°60'5 9.1
2018-Jan-22 23:30N 32°15' W 090°59'4 8.3
2018-Jan-22 23:00N 32°18' W 090°55'1 1.0
2018-Jan-22 22:30N 32°18' W 090°55'3 5.4
2018-Jan-22 22:00N 32°21' W 090°56'2 3.3
2018-Jan-22 21:30N 32°21' W 090°58'3 5.5
2018-Jan-22 21:00N 32°23' W 090°60'4 7.1
2018-Jan-22 20:30N 32°26' W 091°02'4 8.6
2018-Jan-22 20:00N 32°28' W 091°07'5 8.6
2018-Jan-22 19:27N 32°33' W 091°06'4 8.8
2018-Jan-22 18:59N 32°36' W 091°09'22 5.3
2018-Jan-22 14:48N 32°58' W 091°10'  
Track history (hours):
 
Tides and Currents Weather Stations Pressure Air Temp Water Temp Dewpoint Dewpoint Depression Visibility Wind Speed Wind Dir Waves Ship Positions

Ann Elise

Owner: Magnolia Marine Transport Company, Vicksburg, MS. More information available from US FCC via Universal Licensing System and Coast Guard Vessel Documentation Center.

Last reported at 2018-Jan-23 01:08 UTC. Time now 2018-Jan-24 09:28 UTC.
Position N 32°06' W 091°06'.

Length 32 m; draft 3.1 m.

Type: Towing. MMSI: 367544060.

Date/timePositionNaut miles runAvg speedWind from/ knotsBaromVisibWave heightAir tempDewpointWater temp
2018-Jan-23 01:08N 32°06' W 091°06'1 8.2
2018-Jan-23 01:00N 32°07' W 091°07'4 7.4
2018-Jan-23 00:24N 32°07' W 091°01'4 9.1
2018-Jan-23 00:00N 32°11' W 090°60'5 9.1
2018-Jan-22 23:30N 32°15' W 090°59'4 8.3
2018-Jan-22 23:00N 32°18' W 090°55'1 1.0
2018-Jan-22 22:30N 32°18' W 090°55'3 5.4
2018-Jan-22 22:00N 32°21' W 090°56'2 3.3
2018-Jan-22 21:30N 32°21' W 090°58'3 5.5
2018-Jan-22 21:00N 32°23' W 090°60'4 7.1
2018-Jan-22 20:30N 32°26' W 091°02'4 8.6
2018-Jan-22 20:00N 32°28' W 091°07'5 8.6
2018-Jan-22 19:27N 32°33' W 091°06'4 8.8
2018-Jan-22 18:59N 32°36' W 091°09'22 5.3
2018-Jan-22 14:48N 32°58' W 091°10'  

Dump ship's entire track history